Pellston Regional Airport of Emmet County Airport
KPLN : now visible

Airfield :











YOU CAN JOIN US ON...

 
LOGIN :

Register | Disclaimer

   EN    FR    IT 

 









Legend :    VFR   Marginal VFR   IFR   Intensive IFR   Very Intensive IFR
Visi :
Ceiling :
>= 8 km
>= 3000ft
5 to 8 km
1000 to 3000 ft
1500m to 5 km
500 to 1000 ft
800 to 1500m
200 to 500 ft
< 800m
< 200 ft
Symbols :   Thunderstorms  Fog  Heavy snow  Heavy precipitations  Wind > 20 kt






- Airport Elevation : 721 ft
- IATA code : PLN


KPLN - Pellston Regional of Emmet County

CURRENT METAR :
  • 110454Z AUTO 25005KT 3/4SM -SN BR VV012 M08/M09 A3007 RMK AO2 SLP196 P0002 T10781094 410441094

EXPIRED METARs :
  • 110440Z AUTO 26005KT 1 3/4SM -SN BR OVC017 M08/M09 A3006 RMK AO2 P0001 T10781094
  • 110427Z AUTO 29005KT 1 1/2SM -SN BR BKN011 OVC020 M08/M09 A3006 RMK AO2 P0001 T10781094
  • 110400Z AUTO 28005KT 3/4SM -SN BR BKN014 OVC055 M08/M10 A3006 RMK AO2 P0000 T10781100
  • 110354Z AUTO 28007KT 1SM -SN BR BKN020 OVC055 M08/M10 A3006 RMK AO2 SLP194 P0001 T10831100
  • 110341Z AUTO 27008KT 3SM -SN BR FEW019 BKN028 OVC055 M08/M11 A3006 RMK AO2 P0000 T10831106
  • 110330Z AUTO 29007KT 2 1/2SM -SN BR BKN022 BKN029 OVC034 M08/M11 A3006 RMK AO2 P0000 T10831106
  • 110318Z AUTO 30008KT 3SM -SN BR BKN018 OVC055 M08/M11 A3006 RMK AO2 P0000 T10831106
  • 110254Z AUTO 26005KT 1SM -SN BR VV015 M08/M10 A3007 RMK AO2 SLP196 P0000 60002 T10781100 50004
  • 110228Z AUTO 28008KT 1 3/4SM -SN OVC021 M08/M11 A3007 RMK AO2 P0000 T10781106
  • 110154Z AUTO 26007KT 230V300 2SM -SN OVC023 M08/M11 A3007 RMK AO2 SLP198 P0000 T10781106

TAF KPLN
Valid from the 11 at 00:00 until the 12 at 00:00 UTC


110024Z 1100/1124 25008KT 2SM -SHSN OVC025
TEMPO 1100/1104 1/2SM SHSN OVC015
FM110400 26008G15KT 1SM -SHSN BKN028
TEMPO 1104/1108 1/2SM SHSN OVC022
FM110800 25011G20KT 2SM -SHSN BLSN OVC022
FM111600 28014G25KT P6SM VCSH BKN022



MET'MAP, your aeronautical weather chart ! - Copyright ORBIFLY December 2007 - Disclaimer

ORBIFLY MET'MAP TEAM :

Programming & Development : Alexandra Zaïnal
Concept & original design : Baudouin d'Aumeries
Assistance for programming : Marc-Olivier Méhu
Technical & hardware support : Manuel Goepfert

Contact : metmap@orbifly.com




SOURCES & CREDITS :

   NOAA       Earth
Advisory